Time;durP1;ratioP1;P1;durP2;ratioP2;P2;SDS_P1;SDS_P2;PMS_P1;PMS_P2;Temp;Humidity;BMP_temperature;BMP_pressure;BME280_temperature;BME280_humidity;BME280_pressure;Samples;Min_cycle;Max_cycle;Signal;HPM_P1;HPM_P2
2022/07/25 00:01:37;;;;;;;0.00;0.00;;;;;;;;;;5035251;28;20309;-59
2022/07/25 00:04:02;;;;;;;0.00;0.00;;;;;;;;;;5033408;28;20045;-59
2022/07/25 00:06:27;;;;;;;0.00;0.00;;;;;;;;;;5036213;28;20036;-61
2022/07/25 00:08:53;;;;;;;0.00;0.00;;;;;;;;;;5037978;28;20059;-59
2022/07/25 00:11:18;;;;;;;0.15;0.15;;;;;;;;;;5039158;28;20026;-59
2022/07/25 00:13:43;;;;;;;0.00;0.00;;;;;;;;;;5042136;28;20028;-58
2022/07/25 00:16:08;;;;;;;0.03;0.03;;;;;;;;;;5034397;28;20267;-59
2022/07/25 00:18:33;;;;;;;0.03;0.03;;;;;;;;;;5036213;28;20029;-58
2022/07/25 00:21:02;;;;;;;0.00;0.00;;;;;;;;;;5017263;28;20059;-59
2022/07/25 00:23:30;;;;;;;0.45;0.45;;;;;;;;;;5035971;28;20033;-59
2022/07/25 00:26:08;;;;;;;0.05;0.05;;;;;;;;;;5040482;28;20025;-59
2022/07/25 00:28:33;;;;;;;0.00;0.00;;;;;;;;;;5034304;28;20021;-59
2022/07/25 00:31:01;;;;;;;0.00;0.00;;;;;;;;;;5037026;28;20020;-59
2022/07/25 00:33:28;;;;;;;0.00;0.00;;;;;;;;;;5038084;28;20022;-58
2022/07/25 00:35:54;;;;;;;0.00;0.00;;;;;;;;;;5039753;28;20017;-59
2022/07/25 00:38:24;;;;;;;0.00;0.00;;;;;;;;;;5037665;28;20031;-59
2022/07/25 00:40:52;;;;;;;0.00;0.00;;;;;;;;;;5035687;28;20483;-59
2022/07/25 00:43:17;;;;;;;0.00;0.00;;;;;;;;;;5041281;28;20029;-59
2022/07/25 00:45:43;;;;;;;0.00;0.00;;;;;;;;;;5032159;28;20521;-59
2022/07/25 00:48:08;;;;;;;0.00;0.00;;;;;;;;;;5036654;28;20029;-59
2022/07/25 00:50:40;;;;;;;0.00;0.00;;;;;;;;;;5037712;28;20026;-59
2022/07/25 00:53:08;;;;;;;0.00;0.00;;;;;;;;;;5037868;28;20029;-59
2022/07/25 00:55:36;;;;;;;0.00;0.00;;;;;;;;;;5036373;28;20220;-58
2022/07/25 00:58:01;;;;;;;0.00;0.00;;;;;;;;;;5036427;28;20709;-59
2022/07/25 01:00:26;;;;;;;0.00;0.00;;;;;;;;;;5033553;28;20399;-58
2022/07/25 01:02:54;;;;;;;0.00;0.00;;;;;;;;;;5038603;28;20627;-59
2022/07/25 01:05:19;;;;;;;0.00;0.00;;;;;;;;;;5041942;28;20025;-59
2022/07/25 01:07:45;;;;;;;0.00;0.00;;;;;;;;;;5033920;28;20508;-59
2022/07/25 01:10:10;;;;;;;0.55;0.55;;;;;;;;;;5041742;28;20417;-59
2022/07/25 01:12:43;;;;;;;0.00;0.00;;;;;;;;;;5039831;28;20018;-60
2022/07/25 01:15:08;;;;;;;0.00;0.00;;;;;;;;;;5036980;28;20029;-59
2022/07/25 01:17:36;;;;;;;0.00;0.00;;;;;;;;;;5048604;28;20033;-59
2022/07/25 01:20:14;;;;;;;0.00;0.00;;;;;;;;;;5026742;28;20372;-60
2022/07/25 01:22:42;;;;;;;0.90;0.55;;;;;;;;;;5043170;28;20123;-60
2022/07/25 01:25:08;;;;;;;0.00;0.00;;;;;;;;;;5040273;28;20430;-58
2022/07/25 01:27:33;;;;;;;0.00;0.00;;;;;;;;;;5041578;28;20029;-58
2022/07/25 01:30:01;;;;;;;0.00;0.00;;;;;;;;;;5044203;28;20017;-59
2022/07/25 01:32:26;;;;;;;0.00;0.00;;;;;;;;;;5045058;28;20031;-59
2022/07/25 01:34:54;;;;;;;0.00;0.00;;;;;;;;;;5041549;28;20268;-59
2022/07/25 01:37:25;;;;;;;0.00;0.00;;;;;;;;;;5041392;28;20056;-60
2022/07/25 01:39:50;;;;;;;0.00;0.00;;;;;;;;;;5039559;28;20017;-60
2022/07/25 01:42:18;;;;;;;4.40;0.87;;;;;;;;;;5041569;28;20037;-60
2022/07/25 01:44:43;;;;;;;0.00;0.00;;;;;;;;;;5038538;28;20648;-60
2022/07/25 01:47:08;;;;;;;0.00;0.00;;;;;;;;;;5042481;28;20120;-59
2022/07/25 01:49:34;;;;;;;0.00;0.00;;;;;;;;;;5042054;28;20071;-59
2022/07/25 01:52:02;;;;;;;0.00;0.00;;;;;;;;;;5041834;28;20402;-58
2022/07/25 01:54:27;;;;;;;0.00;0.00;;;;;;;;;;5044294;28;20105;-59
2022/07/25 01:56:55;;;;;;;0.25;0.22;;;;;;;;;;5045783;28;20059;-58
2022/07/25 01:59:20;;;;;;;0.00;0.00;;;;;;;;;;5045067;28;20021;-58
2022/07/25 02:01:48;;;;;;;0.00;0.00;;;;;;;;;;5042382;28;20031;-58
2022/07/25 02:04:14;;;;;;;0.00;0.00;;;;;;;;;;5039906;28;20080;-58
2022/07/25 02:06:40;;;;;;;0.98;0.98;;;;;;;;;;5045864;28;20107;-59
2022/07/25 02:09:06;;;;;;;0.00;0.00;;;;;;;;;;5041641;28;20461;-59
2022/07/25 02:11:31;;;;;;;0.00;0.00;;;;;;;;;;5040964;28;20028;-59
2022/07/25 02:14:05;;;;;;;0.00;0.00;;;;;;;;;;5037820;28;20018;-58
2022/07/25 02:16:33;;;;;;;0.00;0.00;;;;;;;;;;5040690;28;20017;-59
2022/07/25 02:18:58;;;;;;;0.00;0.00;;;;;;;;;;5041607;28;20029;-59
2022/07/25 02:21:24;;;;;;;0.00;0.00;;;;;;;;;;5044174;28;20528;-60
2022/07/25 02:23:50;;;;;;;0.00;0.00;;;;;;;;;;5035762;28;20037;-60
2022/07/25 02:26:18;;;;;;;0.00;0.00;;;;;;;;;;5038659;28;20031;-60
2022/07/25 02:28:43;;;;;;;0.00;0.00;;;;;;;;;;5041587;28;20474;-60
2022/07/25 02:31:17;;;;;;;0.00;0.00;;;;;;;;;;5036264;28;20098;-60
2022/07/25 02:33:43;;;;;;;0.00;0.00;;;;;;;;;;5039087;28;20476;-60
2022/07/25 02:36:11;;;;;;;0.00;0.00;;;;;;;;;;5037248;28;20104;-60
2022/07/25 02:38:37;;;;;;;0.00;0.00;;;;;;;;;;5040432;28;20091;-60
2022/07/25 02:41:02;;;;;;;0.00;0.00;;;;;;;;;;5047316;28;20025;-60
2022/07/25 02:43:27;;;;;;;0.00;0.00;;;;;;;;;;5036948;28;20033;-60
2022/07/25 02:45:58;;;;;;;0.00;0.00;;;;;;;;;;5039220;28;20029;-60
2022/07/25 02:48:23;;;;;;;0.00;0.00;;;;;;;;;;5044584;28;20053;-61
2022/07/25 02:50:49;;;;;;;0.00;0.00;;;;;;;;;;5039351;28;20021;-61
2022/07/25 02:53:16;;;;;;;0.00;0.00;;;;;;;;;;5037372;28;20044;-60
2022/07/25 02:55:47;;;;;;;0.00;0.00;;;;;;;;;;5038965;28;20024;-60
2022/07/25 02:58:15;;;;;;;0.00;0.00;;;;;;;;;;5039669;28;20029;-60
2022/07/25 03:00:40;;;;;;;0.00;0.00;;;;;;;;;;5037825;28;20033;-60
2022/07/25 03:03:06;;;;;;;0.00;0.00;;;;;;;;;;5042027;28;20115;-60
2022/07/25 03:05:31;;;;;;;0.00;0.00;;;;;;;;;;5040263;28;20021;-60
2022/07/25 03:07:57;;;;;;;0.00;0.00;;;;;;;;;;5036365;28;20095;-60
2022/07/25 03:10:23;;;;;;;0.00;0.00;;;;;;;;;;5039440;28;20045;-61
2022/07/25 03:12:48;;;;;;;0.00;0.00;;;;;;;;;;5039913;28;20099;-60
2022/07/25 03:15:13;;;;;;;0.00;0.00;;;;;;;;;;5037582;28;20021;-60
2022/07/25 03:17:41;;;;;;;0.00;0.00;;;;;;;;;;5037564;28;20471;-60
2022/07/25 03:20:07;;;;;;;0.00;0.00;;;;;;;;;;5036271;28;20056;-61
2022/07/25 03:22:32;;;;;;;0.00;0.00;;;;;;;;;;5036945;28;20383;-60
2022/07/25 03:24:59;;;;;;;0.00;0.00;;;;;;;;;;5035992;28;20104;-60
2022/07/25 03:27:25;;;;;;;0.00;0.00;;;;;;;;;;5041418;28;20060;-61
2022/07/25 03:29:57;;;;;;;0.00;0.00;;;;;;;;;;5036971;28;20431;-60
2022/07/25 03:32:24;;;;;;;0.30;0.30;;;;;;;;;;5035992;28;20048;-60
2022/07/25 03:34:58;;;;;;;0.00;0.00;;;;;;;;;;5037051;28;20490;-60
2022/07/25 03:37:24;;;;;;;0.00;0.00;;;;;;;;;;5038956;28;20016;-60
2022/07/25 03:39:49;;;;;;;0.00;0.00;;;;;;;;;;5042644;28;20074;-60
2022/07/25 03:42:17;;;;;;;0.00;0.00;;;;;;;;;;5037491;28;20108;-60
2022/07/25 03:44:42;;;;;;;0.00;0.00;;;;;;;;;;5036023;28;20029;-60
2022/07/25 03:47:07;;;;;;;0.00;0.00;;;;;;;;;;5037541;28;20458;-60
2022/07/25 03:49:33;;;;;;;0.00;0.00;;;;;;;;;;5034323;28;20021;-60
2022/07/25 03:51:58;;;;;;;0.00;0.00;;;;;;;;;;5038375;28;20023;-60
2022/07/25 03:54:23;;;;;;;0.00;0.00;;;;;;;;;;5034253;28;20398;-60
2022/07/25 03:56:49;;;;;;;0.00;0.00;;;;;;;;;;5039089;28;20032;-60
2022/07/25 03:59:18;;;;;;;0.00;0.00;;;;;;;;;;5037979;28;20030;-60
2022/07/25 04:01:44;;;;;;;0.00;0.00;;;;;;;;;;5041256;28;20035;-60
2022/07/25 04:04:12;;;;;;;0.00;0.00;;;;;;;;;;5038675;28;20057;-60
2022/07/25 04:06:40;;;;;;;0.00;0.00;;;;;;;;;;5039643;28;20032;-60
2022/07/25 04:09:06;;;;;;;0.20;0.20;;;;;;;;;;5025188;28;20036;-60
2022/07/25 04:11:38;;;;;;;0.30;0.30;;;;;;;;;;5039895;28;20026;-60
2022/07/25 04:14:03;;;;;;;0.00;0.00;;;;;;;;;;5035202;28;20492;-59
2022/07/25 04:16:32;;;;;;;0.00;0.00;;;;;;;;;;5036181;28;20017;-59
2022/07/25 04:18:59;;;;;;;0.00;0.00;;;;;;;;;;5017403;28;20029;-60
2022/07/25 04:21:25;;;;;;;0.00;0.00;;;;;;;;;;5035382;28;20369;-60
2022/07/25 04:23:53;;;;;;;0.00;0.00;;;;;;;;;;5036232;28;20021;-60
2022/07/25 04:26:21;;;;;;;0.00;0.00;;;;;;;;;;5036781;28;20432;-60
2022/07/25 04:28:49;;;;;;;0.00;0.00;;;;;;;;;;5037132;28;20029;-60
2022/07/25 04:31:14;;;;;;;0.00;0.00;;;;;;;;;;5042398;28;20374;-60
2022/07/25 04:33:40;;;;;;;0.00;0.00;;;;;;;;;;5035778;28;20025;-60
2022/07/25 04:36:06;;;;;;;0.00;0.00;;;;;;;;;;5036009;28;20025;-60
2022/07/25 04:38:31;;;;;;;0.40;0.40;;;;;;;;;;5039592;28;20094;-60
2022/07/25 04:40:59;;;;;;;0.00;0.00;;;;;;;;;;5036163;28;20025;-59
2022/07/25 04:43:24;;;;;;;0.00;0.00;;;;;;;;;;5037707;28;20048;-60
2022/07/25 04:45:49;;;;;;;0.05;0.05;;;;;;;;;;5037686;28;20028;-59
2022/07/25 04:48:18;;;;;;;0.00;0.00;;;;;;;;;;5041092;28;20021;-60
2022/07/25 04:50:44;;;;;;;0.85;0.85;;;;;;;;;;5039748;28;20032;-60
2022/07/25 04:53:09;;;;;;;0.73;0.73;;;;;;;;;;5042076;28;20029;-60
2022/07/25 04:55:37;;;;;;;0.90;0.90;;;;;;;;;;5045401;28;20028;-60
2022/07/25 04:58:03;;;;;;;6.07;5.50;;;;;;;;;;5041224;28;20037;-60
2022/07/25 05:00:28;;;;;;;0.20;0.20;;;;;;;;;;5046683;28;20036;-60
2022/07/25 05:02:56;;;;;;;8.15;1.30;;;;;;;;;;5035370;28;20045;-60
2022/07/25 05:05:21;;;;;;;0.00;0.00;;;;;;;;;;5020864;28;21280;-60
2022/07/25 05:07:46;;;;;;;0.93;0.10;;;;;;;;;;5023230;28;20033;-60
2022/07/25 05:10:14;;;;;;;0.40;0.40;;;;;;;;;;5021273;28;20033;-60
2022/07/25 05:12:49;;;;;;;0.00;0.00;;;;;;;;;;5023993;28;20088;-60
2022/07/25 05:15:14;;;;;;;0.55;0.55;;;;;;;;;;5025642;28;20106;-60
2022/07/25 05:17:42;;;;;;;0.00;0.00;;;;;;;;;;5025066;28;20413;-60
2022/07/25 05:20:08;;;;;;;0.00;0.00;;;;;;;;;;5027585;28;20051;-60
2022/07/25 05:22:33;;;;;;;0.20;0.20;;;;;;;;;;5027257;28;20523;-60
2022/07/25 05:25:01;;;;;;;0.00;0.00;;;;;;;;;;5026957;28;20063;-60
2022/07/25 05:27:26;;;;;;;0.00;0.00;;;;;;;;;;5021217;28;20080;-60
2022/07/25 05:29:51;;;;;;;0.00;0.00;;;;;;;;;;5022282;28;20017;-60
2022/07/25 05:32:16;;;;;;;0.00;0.00;;;;;;;;;;5012780;28;20443;-60
2022/07/25 05:34:42;;;;;;;0.00;0.00;;;;;;;;;;5023587;28;20030;-60
2022/07/25 05:37:10;;;;;;;0.00;0.00;;;;;;;;;;5023505;28;20057;-60
2022/07/25 05:39:39;;;;;;;0.00;0.00;;;;;;;;;;5021412;28;20279;-60
2022/07/25 05:42:07;;;;;;;0.00;0.00;;;;;;;;;;5023187;28;20029;-61
2022/07/25 05:44:33;;;;;;;0.00;0.00;;;;;;;;;;5020692;28;20053;-61
2022/07/25 05:47:00;;;;;;;0.00;0.00;;;;;;;;;;5022061;28;20470;-61
2022/07/25 05:49:29;;;;;;;0.00;0.00;;;;;;;;;;5017785;28;20041;-60
2022/07/25 05:51:57;;;;;;;0.00;0.00;;;;;;;;;;5024420;28;20105;-61
2022/07/25 05:54:22;;;;;;;0.00;0.00;;;;;;;;;;5023977;28;20481;-60
2022/07/25 05:56:47;;;;;;;0.00;0.00;;;;;;;;;;5021709;28;20021;-60
2022/07/25 05:59:13;;;;;;;0.67;0.53;;;;;;;;;;5015917;28;20265;-61
2022/07/25 06:01:41;;;;;;;5.73;5.53;;;;;;;;;;5010035;28;20277;-61
2022/07/25 06:04:06;;;;;;;0.00;0.00;;;;;;;;;;5033463;28;20318;-61
2022/07/25 06:06:31;;;;;;;0.00;0.00;;;;;;;;;;5042069;28;20441;-60
2022/07/25 06:08:57;;;;;;;0.10;0.10;;;;;;;;;;5040433;28;20028;-61
2022/07/25 06:11:22;;;;;;;0.00;0.00;;;;;;;;;;5042194;28;20502;-61
2022/07/25 06:13:47;;;;;;;0.00;0.00;;;;;;;;;;5038398;28;20064;-62
2022/07/25 06:16:18;;;;;;;0.00;0.00;;;;;;;;;;5034138;28;20509;-62
2022/07/25 06:18:44;;;;;;;0.00;0.00;;;;;;;;;;5038510;28;20799;-62
2022/07/25 06:21:15;;;;;;;0.00;0.00;;;;;;;;;;5038379;28;20082;-61
2022/07/25 06:23:40;;;;;;;0.00;0.00;;;;;;;;;;5036489;28;20051;-62
2022/07/25 06:26:09;;;;;;;0.00;0.00;;;;;;;;;;5028204;28;20474;-61
2022/07/25 06:28:36;;;;;;;0.00;0.00;;;;;;;;;;5036559;28;20091;-61
2022/07/25 06:31:01;;;;;;;0.00;0.00;;;;;;;;;;5029261;28;20022;-61
2022/07/25 06:33:32;;;;;;;0.00;0.00;;;;;;;;;;5035588;28;20021;-61
2022/07/25 06:35:58;;;;;;;0.00;0.00;;;;;;;;;;5026173;28;20022;-61
2022/07/25 06:38:26;;;;;;;0.20;0.20;;;;;;;;;;5042297;28;20028;-61
2022/07/25 06:40:51;;;;;;;0.03;0.03;;;;;;;;;;5041316;28;20124;-61
2022/07/25 06:43:16;;;;;;;0.30;0.30;;;;;;;;;;5042499;28;20503;-61
2022/07/25 06:45:46;;;;;;;0.13;0.13;;;;;;;;;;5039949;28;20356;-62
2022/07/25 06:48:11;;;;;;;0.00;0.00;;;;;;;;;;5043059;28;20679;-61
2022/07/25 06:50:39;;;;;;;1.55;1.55;;;;;;;;;;5036453;28;20052;-61
2022/07/25 06:53:04;;;;;;;0.00;0.00;;;;;;;;;;5035970;28;20030;-61
2022/07/25 06:55:32;;;;;;;0.10;0.10;;;;;;;;;;5036528;28;20024;-61
2022/07/25 06:58:02;;;;;;;0.00;0.00;;;;;;;;;;5041257;28;20275;-61
2022/07/25 07:00:28;;;;;;;0.00;0.00;;;;;;;;;;5038964;28;20414;-61
2022/07/25 07:03:02;;;;;;;0.28;0.28;;;;;;;;;;5036635;28;20088;-62
2022/07/25 07:05:29;;;;;;;0.00;0.00;;;;;;;;;;5038006;28;20466;-62
2022/07/25 07:07:54;;;;;;;0.00;0.00;;;;;;;;;;5039599;28;20037;-65
2022/07/25 07:10:20;;;;;;;0.00;0.00;;;;;;;;;;5038880;28;20021;-62
2022/07/25 07:12:48;;;;;;;0.47;0.47;;;;;;;;;;5038015;28;20033;-64
2022/07/25 07:15:14;;;;;;;0.00;0.00;;;;;;;;;;5038146;28;20091;-62
2022/07/25 07:17:42;;;;;;;0.03;0.03;;;;;;;;;;5037156;28;20421;-62
2022/07/25 07:20:08;;;;;;;0.00;0.00;;;;;;;;;;5037944;28;20504;-62
2022/07/25 07:22:43;;;;;;;0.20;0.20;;;;;;;;;;5036738;28;20028;-63
2022/07/25 07:25:08;;;;;;;0.20;0.20;;;;;;;;;;5039211;28;20088;-64
2022/07/25 07:27:36;;;;;;;0.00;0.00;;;;;;;;;;5036432;28;20030;-64
2022/07/25 07:30:02;;;;;;;0.00;0.00;;;;;;;;;;5038933;28;20025;-65
2022/07/25 07:32:27;;;;;;;0.00;0.00;;;;;;;;;;5018273;28;20094;-63
2022/07/25 07:34:52;;;;;;;0.00;0.00;;;;;;;;;;5035354;28;20166;-63
2022/07/25 07:37:17;;;;;;;0.00;0.00;;;;;;;;;;5039278;28;20295;-63
2022/07/25 07:39:42;;;;;;;0.00;0.00;;;;;;;;;;5038238;28;20109;-64
2022/07/25 07:42:11;;;;;;;0.20;0.20;;;;;;;;;;5035467;28;20459;-64
2022/07/25 07:44:36;;;;;;;;;;;;;;;;;;5037907;28;20100;-64
2022/07/25 07:47:01;;;;;;;0.00;0.00;;;;;;;;;;5038053;28;20047;-64
2022/07/25 07:49:27;;;;;;;0.00;0.00;;;;;;;;;;5037987;28;20300;-64
2022/07/25 07:51:54;;;;;;;1.63;1.63;;;;;;;;;;5035915;28;20107;-64
2022/07/25 07:57:03;;;;;;;0.10;0.10;;;;;;;;;;5036745;28;20458;-64
2022/07/25 07:59:28;;;;;;;0.00;0.00;;;;;;;;;;5037021;28;20021;-64
2022/07/25 08:01:54;;;;;;;0.10;0.10;;;;;;;;;;5028851;28;20396;-63
2022/07/25 08:04:22;;;;;;;0.03;0.03;;;;;;;;;;5041597;28;20316;-64
2022/07/25 08:06:47;;;;;;;;;;;;;;;;;;5039099;28;20252;-63
2022/07/25 08:09:12;;;;;;;0.00;0.00;;;;;;;;;;5039106;28;19917;-63
2022/07/25 08:11:38;;;;;;;0.00;0.00;;;;;;;;;;5038269;28;20381;-63
2022/07/25 08:14:06;;;;;;;0.85;0.85;;;;;;;;;;5038182;28;20072;-63
2022/07/25 08:16:34;;;;;;;1.05;1.05;;;;;;;;;;5037590;28;20162;-63
2022/07/25 08:19:02;;;;;;;0.15;0.15;;;;;;;;;;5041792;28;20029;-63
2022/07/25 08:21:27;;;;;;;0.00;0.00;;;;;;;;;;5037006;28;20026;-63
2022/07/25 08:23:53;;;;;;;0.00;0.00;;;;;;;;;;5038384;28;20040;-64
2022/07/25 08:26:18;;;;;;;0.00;0.00;;;;;;;;;;5038386;28;20025;-64
2022/07/25 08:28:46;;;;;;;1.43;1.40;;;;;;;;;;5037594;28;20036;-64
2022/07/25 08:31:11;;;;;;;;;;;;;;;;;;5036810;28;20665;-63
2022/07/25 08:33:36;;;;;;;0.10;0.10;;;;;;;;;;5038651;28;20338;-63
2022/07/25 08:36:01;;;;;;;0.13;0.13;;;;;;;;;;5039854;28;20132;-64
2022/07/25 08:38:27;;;;;;;0.60;0.60;;;;;;;;;;5039273;28;20076;-64
2022/07/25 08:40:53;;;;;;;0.68;0.68;;;;;;;;;;5038394;28;20095;-63
2022/07/25 08:43:18;;;;;;;1.45;1.45;;;;;;;;;;5038133;28;20037;-63
2022/07/25 08:45:46;;;;;;;0.00;0.00;;;;;;;;;;5036501;28;20029;-63
2022/07/25 08:48:11;;;;;;;0.00;0.00;;;;;;;;;;5040115;28;20021;-63
2022/07/25 08:50:37;;;;;;;0.00;0.00;;;;;;;;;;5038021;28;20032;-62
2022/07/25 08:53:03;;;;;;;0.50;0.50;;;;;;;;;;5037382;28;20529;-63
2022/07/25 08:55:28;;;;;;;0.00;0.00;;;;;;;;;;5036127;28;20024;-63
2022/07/25 08:57:53;;;;;;;0.00;0.00;;;;;;;;;;5023155;28;20083;-63
2022/07/25 09:00:23;;;;;;;0.50;0.50;;;;;;;;;;5038003;28;20025;-64
2022/07/25 09:02:52;;;;;;;0.00;0.00;;;;;;;;;;5037960;28;20501;-65
2022/07/25 09:05:21;;;;;;;0.00;0.00;;;;;;;;;;5037925;28;20033;-64
2022/07/25 09:07:46;;;;;;;0.00;0.00;;;;;;;;;;5036868;28;20061;-65
2022/07/25 09:10:12;;;;;;;0.00;0.00;;;;;;;;;;5034840;28;20493;-63
2022/07/25 09:12:37;;;;;;;0.22;0.22;;;;;;;;;;5038566;28;20075;-64
2022/07/25 09:15:03;;;;;;;0.00;0.00;;;;;;;;;;5035101;28;20026;-64
2022/07/25 09:17:28;;;;;;;0.20;0.20;;;;;;;;;;5037835;28;20068;-64
2022/07/25 09:19:54;;;;;;;0.00;0.00;;;;;;;;;;5035744;28;20045;-63
2022/07/25 09:22:20;;;;;;;0.00;0.00;;;;;;;;;;5034239;28;20104;-63
2022/07/25 09:24:45;;;;;;;0.00;0.00;;;;;;;;;;5035530;28;20101;-64
2022/07/25 09:27:11;;;;;;;0.00;0.00;;;;;;;;;;5033412;28;20736;-64
2022/07/25 09:29:37;;;;;;;0.10;0.10;;;;;;;;;;5037735;28;20067;-64
2022/07/25 09:32:15;;;;;;;0.00;0.00;;;;;;;;;;5017116;28;20029;-63
2022/07/25 09:34:49;;;;;;;0.00;0.00;;;;;;;;;;5035247;28;20026;-63
2022/07/25 09:37:24;;;;;;;0.00;0.00;;;;;;;;;;5040221;28;20409;-63
2022/07/25 09:39:50;;;;;;;0.00;0.00;;;;;;;;;;5039253;28;20095;-64
2022/07/25 09:42:18;;;;;;;0.00;0.00;;;;;;;;;;5039789;28;20082;-64
2022/07/25 09:44:43;;;;;;;1.48;1.38;;;;;;;;;;5042258;28;20024;-64
2022/07/25 09:47:18;;;;;;;0.00;0.00;;;;;;;;;;5041855;28;20044;-65
2022/07/25 09:49:44;;;;;;;0.00;0.00;;;;;;;;;;5042380;28;20445;-64
2022/07/25 09:52:11;;;;;;;0.00;0.00;;;;;;;;;;5038652;28;20105;-63
2022/07/25 09:54:40;;;;;;;0.00;0.00;;;;;;;;;;5037835;28;20063;-64
2022/07/25 09:57:05;;;;;;;0.00;0.00;;;;;;;;;;5038283;28;20033;-63
2022/07/25 09:59:31;;;;;;;0.20;0.20;;;;;;;;;;5038214;28;20039;-63
2022/07/25 10:02:08;;;;;;;0.80;0.80;;;;;;;;;;5041068;28;20481;-63
2022/07/25 10:04:48;;;;;;;0.00;0.00;;;;;;;;;;5037225;28;20037;-62
2022/07/25 10:07:15;;;;;;;0.10;0.10;;;;;;;;;;5039329;28;20017;-62
2022/07/25 10:09:47;;;;;;;0.00;0.00;;;;;;;;;;5038920;28;20009;-64
2022/07/25 10:12:16;;;;;;;0.88;0.63;;;;;;;;;;5038947;28;20052;-63
2022/07/25 10:14:44;;;;;;;0.00;0.00;;;;;;;;;;5038362;28;20025;-63
2022/07/25 10:17:18;;;;;;;0.00;0.00;;;;;;;;;;5039111;28;20021;-64
2022/07/25 10:19:45;;;;;;;1.27;1.23;;;;;;;;;;5039706;28;20026;-63
2022/07/25 10:22:10;;;;;;;1.88;0.52;;;;;;;;;;5038555;28;20032;-62
2022/07/25 10:24:37;;;;;;;2.78;1.42;;;;;;;;;;5036519;28;20018;-64
2022/07/25 10:27:07;;;;;;;0.00;0.00;;;;;;;;;;5037039;28;20032;-63
2022/07/25 10:29:33;;;;;;;0.75;0.75;;;;;;;;;;5037005;28;20025;-64
2022/07/25 10:32:04;;;;;;;0.00;0.00;;;;;;;;;;5037609;28;20025;-62
2022/07/25 10:34:39;;;;;;;0.57;0.25;;;;;;;;;;5040646;28;20025;-63
2022/07/25 10:37:11;;;;;;;0.00;0.00;;;;;;;;;;5037129;28;20029;-63
2022/07/25 10:39:37;;;;;;;0.52;0.52;;;;;;;;;;5041177;28;20017;-63
2022/07/25 10:42:03;;;;;;;0.00;0.00;;;;;;;;;;5040447;28;20021;-64
2022/07/25 10:44:39;;;;;;;1.38;1.38;;;;;;;;;;5039376;28;20044;-64
2022/07/25 10:47:05;;;;;;;0.00;0.00;;;;;;;;;;5038483;28;20037;-63
2022/07/25 10:49:34;;;;;;;0.10;0.10;;;;;;;;;;5038271;28;20040;-63
2022/07/25 10:52:02;;;;;;;1.10;1.10;;;;;;;;;;5037244;28;20446;-64
2022/07/25 10:54:31;;;;;;;0.70;0.70;;;;;;;;;;5035143;28;20052;-64
2022/07/25 10:56:57;;;;;;;0.13;0.13;;;;;;;;;;5039246;28;20074;-62
2022/07/25 10:59:36;;;;;;;0.32;0.32;;;;;;;;;;5037637;28;20017;-63
2022/07/25 11:02:02;;;;;;;0.10;0.10;;;;;;;;;;5036387;28;20033;-63
2022/07/25 11:04:27;;;;;;;0.43;0.43;;;;;;;;;;5036131;28;20039;-63
2022/07/25 11:06:53;;;;;;;0.93;0.93;;;;;;;;;;5038258;28;20116;-63
2022/07/25 11:09:19;;;;;;;0.00;0.00;;;;;;;;;;5038439;28;20025;-63
2022/07/25 11:11:48;;;;;;;0.38;0.38;;;;;;;;;;5038164;28;20536;-63
2022/07/25 11:14:20;;;;;;;0.00;0.00;;;;;;;;;;5036881;28;20071;-62
2022/07/25 11:16:49;;;;;;;0.52;0.52;;;;;;;;;;5035884;28;20013;-61
2022/07/25 11:19:14;;;;;;;;;;;;;;;;;;5038471;28;20025;-63
2022/07/25 11:21:43;;;;;;;1.97;1.80;;;;;;;;;;5037334;28;19982;-63
2022/07/25 11:24:08;;;;;;;0.00;0.00;;;;;;;;;;5035713;28;20031;-62
2022/07/25 11:26:42;;;;;;;0.00;0.00;;;;;;;;;;5036401;28;20021;-63
2022/07/25 11:29:08;;;;;;;1.05;1.05;;;;;;;;;;5035205;28;20280;-63
2022/07/25 11:31:34;;;;;;;0.53;0.53;;;;;;;;;;5034871;28;20021;-63
2022/07/25 11:33:59;;;;;;;1.05;0.68;;;;;;;;;;5032763;28;20317;-63
2022/07/25 11:36:24;;;;;;;0.00;0.00;;;;;;;;;;5034963;28;20018;-63
2022/07/25 11:38:50;;;;;;;0.38;0.38;;;;;;;;;;5036054;28;20031;-63
2022/07/25 11:41:26;;;;;;;0.00;0.00;;;;;;;;;;5035232;28;20024;-61
2022/07/25 11:43:57;;;;;;;0.20;0.20;;;;;;;;;;5036194;28;20075;-62
2022/07/25 11:46:22;;;;;;;0.50;0.50;;;;;;;;;;5034061;28;20117;-63
2022/07/25 11:48:48;;;;;;;0.13;0.13;;;;;;;;;;5038028;28;20112;-63
2022/07/25 11:51:14;;;;;;;0.00;0.00;;;;;;;;;;5037525;28;20360;-63
2022/07/25 11:53:49;;;;;;;0.22;0.20;;;;;;;;;;5034189;28;20028;-63
2022/07/25 11:56:18;;;;;;;0.00;0.00;;;;;;;;;;5036310;28;20425;-62
2022/07/25 11:58:57;;;;;;;0.05;0.05;;;;;;;;;;5033133;28;20712;-63
2022/07/25 12:01:25;;;;;;;0.65;0.43;;;;;;;;;;5035208;28;20029;-63
2022/07/25 12:03:50;;;;;;;0.00;0.00;;;;;;;;;;5034129;28;20068;-63
2022/07/25 12:06:18;;;;;;;0.00;0.00;;;;;;;;;;5037098;28;20106;-63
2022/07/25 12:08:43;;;;;;;0.05;0.05;;;;;;;;;;5037463;28;20124;-63
2022/07/25 12:11:15;;;;;;;0.13;0.13;;;;;;;;;;5037969;28;20444;-64
2022/07/25 12:13:40;;;;;;;0.00;0.00;;;;;;;;;;5034880;28;20256;-62
2022/07/25 12:16:05;;;;;;;0.27;0.27;;;;;;;;;;5035425;28;20025;-63
2022/07/25 12:18:30;;;;;;;0.57;0.57;;;;;;;;;;5036415;28;20276;-63
2022/07/25 12:20:59;;;;;;;0.20;0.20;;;;;;;;;;5036453;28;20067;-62
2022/07/25 12:23:24;;;;;;;;;;;;;;;;;;5036946;28;20296;-63
2022/07/25 12:25:50;;;;;;;0.00;0.00;;;;;;;;;;5045202;28;19997;-63
2022/07/25 12:28:15;;;;;;;0.00;0.00;;;;;;;;;;5038517;28;20025;-63
2022/07/25 12:30:41;;;;;;;3.30;1.15;;;;;;;;;;5037830;28;20108;-62
2022/07/25 12:33:06;;;;;;;1.77;1.67;;;;;;;;;;5035185;28;20355;-63
2022/07/25 12:35:31;;;;;;;0.10;0.10;;;;;;;;;;5036648;28;20485;-63
2022/07/25 12:37:57;;;;;;;0.00;0.00;;;;;;;;;;5039854;28;20064;-65
2022/07/25 12:40:22;;;;;;;0.20;0.20;;;;;;;;;;5037134;28;20571;-63
2022/07/25 12:42:48;;;;;;;0.00;0.00;;;;;;;;;;5036224;28;20017;-63
2022/07/25 12:45:16;;;;;;;1.05;0.98;;;;;;;;;;5036159;28;20029;-63
2022/07/25 12:47:45;;;;;;;0.00;0.00;;;;;;;;;;5035744;28;20031;-64
2022/07/25 12:50:12;;;;;;;0.00;0.00;;;;;;;;;;5028984;28;20063;-62
2022/07/25 12:52:38;;;;;;;0.00;0.00;;;;;;;;;;5036766;28;20084;-63
2022/07/25 12:55:04;;;;;;;0.00;0.00;;;;;;;;;;5035349;28;20045;-62
2022/07/25 12:57:29;;;;;;;0.20;0.20;;;;;;;;;;5038176;28;20024;-62
2022/07/25 12:59:57;;;;;;;0.45;0.45;;;;;;;;;;5038058;28;20017;-62
2022/07/25 13:02:23;;;;;;;0.00;0.00;;;;;;;;;;5037670;28;20534;-63
2022/07/25 13:04:48;;;;;;;1.13;1.13;;;;;;;;;;5036925;28;20059;-63
2022/07/25 13:07:14;;;;;;;0.28;0.28;;;;;;;;;;5031988;28;20049;-63
2022/07/25 13:09:40;;;;;;;1.33;1.27;;;;;;;;;;5036316;28;20029;-64
2022/07/25 13:12:05;;;;;;;0.35;0.35;;;;;;;;;;5039963;28;20029;-64
2022/07/25 13:14:30;;;;;;;0.00;0.00;;;;;;;;;;5039235;28;20096;-62
2022/07/25 13:16:56;;;;;;;0.00;0.00;;;;;;;;;;5040335;28;20092;-62
2022/07/25 13:19:21;;;;;;;0.30;0.30;;;;;;;;;;5041935;28;20025;-63
2022/07/25 13:21:46;;;;;;;0.43;0.43;;;;;;;;;;5041905;28;20264;-62
2022/07/25 13:24:11;;;;;;;0.38;0.38;;;;;;;;;;5038494;28;20264;-62
2022/07/25 13:26:37;;;;;;;1.50;1.50;;;;;;;;;;5038193;28;20080;-63
2022/07/25 13:29:07;;;;;;;0.65;0.65;;;;;;;;;;5048523;28;20332;-64
2022/07/25 13:31:35;;;;;;;0.35;0.35;;;;;;;;;;5053737;28;20025;-64
2022/07/25 13:34:01;;;;;;;0.00;0.00;;;;;;;;;;5038613;28;20032;-63
2022/07/25 13:36:26;;;;;;;0.30;0.30;;;;;;;;;;5054750;28;20373;-64
2022/07/25 13:38:51;;;;;;;0.30;0.30;;;;;;;;;;5035958;28;20040;-64
2022/07/25 13:41:17;;;;;;;0.10;0.10;;;;;;;;;;5054340;28;20442;-63
2022/07/25 13:43:42;;;;;;;0.13;0.13;;;;;;;;;;5036824;28;20030;-64
2022/07/25 13:46:07;;;;;;;0.00;0.00;;;;;;;;;;5036179;28;20292;-63
2022/07/25 13:48:33;;;;;;;0.15;0.15;;;;;;;;;;5043168;28;20311;-64
2022/07/25 13:50:58;;;;;;;0.00;0.00;;;;;;;;;;5039863;28;20029;-64
2022/07/25 13:53:24;;;;;;;0.00;0.00;;;;;;;;;;5044642;28;20020;-66
2022/07/25 13:55:49;;;;;;;0.00;0.00;;;;;;;;;;5040470;28;20014;-67
2022/07/25 13:58:15;;;;;;;0.13;0.13;;;;;;;;;;5038997;28;20035;-67
2022/07/25 14:00:40;;;;;;;0.10;0.10;;;;;;;;;;5038525;28;20027;-66
2022/07/25 14:03:05;;;;;;;0.28;0.28;;;;;;;;;;5040117;28;20040;-65
2022/07/25 14:05:30;;;;;;;0.00;0.00;;;;;;;;;;5040999;28;20025;-65
2022/07/25 14:07:56;;;;;;;1.23;1.20;;;;;;;;;;5037913;28;20075;-64
2022/07/25 14:10:21;;;;;;;0.13;0.13;;;;;;;;;;5046404;28;20020;-64
2022/07/25 14:12:46;;;;;;;0.33;0.33;;;;;;;;;;5055184;28;20040;-64
2022/07/25 14:15:12;;;;;;;0.00;0.00;;;;;;;;;;5055133;28;20305;-64
2022/07/25 14:17:37;;;;;;;0.70;0.70;;;;;;;;;;5055026;28;20158;-66
2022/07/25 14:20:03;;;;;;;0.00;0.00;;;;;;;;;;5055280;28;20028;-63
2022/07/25 14:22:28;;;;;;;0.00;0.00;;;;;;;;;;5054173;28;20489;-62
2022/07/25 14:24:54;;;;;;;1.23;1.23;;;;;;;;;;5055285;28;20028;-64
2022/07/25 14:27:19;;;;;;;1.27;0.43;;;;;;;;;;5054958;28;20259;-62
2022/07/25 14:29:47;;;;;;;0.00;0.00;;;;;;;;;;5055108;28;20100;-62
2022/07/25 14:32:12;;;;;;;0.00;0.00;;;;;;;;;;5054963;28;20261;-62
2022/07/25 14:34:39;;;;;;;0.00;0.00;;;;;;;;;;5055096;28;20474;-63
2022/07/25 14:37:05;;;;;;;0.00;0.00;;;;;;;;;;5054931;28;20021;-63
2022/07/25 14:39:30;;;;;;;0.20;0.20;;;;;;;;;;5054947;28;20536;-63
2022/07/25 14:41:56;;;;;;;0.00;0.00;;;;;;;;;;5054905;28;20048;-63
2022/07/25 14:44:21;;;;;;;0.00;0.00;;;;;;;;;;5036788;28;20430;-62
2022/07/25 14:46:48;;;;;;;0.00;0.00;;;;;;;;;;5054443;28;20115;-63